sensor_id;sensor_type;location;lat;lon;timestamp;pressure;altitude;pressure_sealevel;temperature;humidity
55801;BME280;41730;51.960;20.158;2023-05-08T00:01:35;101500.14;;;4.41;67.49
55801;BME280;41730;51.960;20.158;2023-05-08T00:04:07;101500.14;;;4.32;67.78
55801;BME280;41730;51.960;20.158;2023-05-08T00:06:38;101498.45;;;4.49;67.27
55801;BME280;41730;51.960;20.158;2023-05-08T00:09:10;101494.96;;;4.64;66.89
55801;BME280;41730;51.960;20.158;2023-05-08T00:11:42;101495.18;;;4.72;66.66
55801;BME280;41730;51.960;20.158;2023-05-08T00:14:14;101494.03;;;4.75;66.51
55801;BME280;41730;51.960;20.158;2023-05-08T00:16:48;101495.87;;;4.77;66.58
55801;BME280;41730;51.960;20.158;2023-05-08T00:19:20;101496.05;;;4.81;66.10
55801;BME280;41730;51.960;20.158;2023-05-08T00:21:52;101499.18;;;4.53;66.79
55801;BME280;41730;51.960;20.158;2023-05-08T00:24:24;101500.45;;;4.42;67.38
55801;BME280;41730;51.960;20.158;2023-05-08T00:26:55;101499.44;;;4.51;67.25
55801;BME280;41730;51.960;20.158;2023-05-08T00:29:27;101499.00;;;4.49;67.16
55801;BME280;41730;51.960;20.158;2023-05-08T00:31:58;101502.35;;;4.28;67.75
55801;BME280;41730;51.960;20.158;2023-05-08T00:34:30;101500.45;;;4.23;67.98
55801;BME280;41730;51.960;20.158;2023-05-08T00:37:02;101506.67;;;4.18;68.18
55801;BME280;41730;51.960;20.158;2023-05-08T00:39:33;101505.77;;;4.30;67.95
55801;BME280;41730;51.960;20.158;2023-05-08T00:42:05;101512.55;;;4.29;68.03
55801;BME280;41730;51.960;20.158;2023-05-08T00:44:36;101511.04;;;4.32;68.03
55801;BME280;41730;51.960;20.158;2023-05-08T00:47:09;101511.52;;;4.34;68.06
55801;BME280;41730;51.960;20.158;2023-05-08T00:49:41;101513.90;;;4.40;67.83
55801;BME280;41730;51.960;20.158;2023-05-08T00:52:13;101516.59;;;4.52;67.31
55801;BME280;41730;51.960;20.158;2023-05-08T00:54:45;101513.38;;;4.55;66.96
55801;BME280;41730;51.960;20.158;2023-05-08T00:57:17;101523.25;;;4.55;67.26
55801;BME280;41730;51.960;20.158;2023-05-08T00:59:49;101520.86;;;4.54;66.92
55801;BME280;41730;51.960;20.158;2023-05-08T01:02:21;101526.11;;;4.58;66.68
55801;BME280;41730;51.960;20.158;2023-05-08T01:04:54;101531.83;;;4.43;66.92
55801;BME280;41730;51.960;20.158;2023-05-08T01:07:26;101536.54;;;4.18;67.63
55801;BME280;41730;51.960;20.158;2023-05-08T01:09:58;101536.04;;;4.23;67.54
55801;BME280;41730;51.960;20.158;2023-05-08T01:12:46;101539.64;;;4.29;67.21
55801;BME280;41730;51.960;20.158;2023-05-08T01:15:20;101541.81;;;4.31;67.09
55801;BME280;41730;51.960;20.158;2023-05-08T01:18:03;101547.23;;;4.35;66.99
55801;BME280;41730;51.960;20.158;2023-05-08T01:20:46;101550.02;;;4.35;67.10
55801;BME280;41730;51.960;20.158;2023-05-08T01:23:43;101554.98;;;4.27;67.36
55801;BME280;41730;51.960;20.158;2023-05-08T01:29:47;101560.17;;;4.18;67.34
55801;BME280;41730;51.960;20.158;2023-05-08T01:32:24;101561.00;;;4.09;67.69
55801;BME280;41730;51.960;20.158;2023-05-08T01:35:02;101561.55;;;4.13;67.60
55801;BME280;41730;51.960;20.158;2023-05-08T01:37:44;101555.98;;;4.14;67.38
55801;BME280;41730;51.960;20.158;2023-05-08T01:40:27;101558.40;;;4.03;67.60
55801;BME280;41730;51.960;20.158;2023-05-08T01:43:12;101563.94;;;3.98;67.78
55801;BME280;41730;51.960;20.158;2023-05-08T01:45:47;101562.62;;;4.07;67.46
55801;BME280;41730;51.960;20.158;2023-05-08T01:48:26;101560.97;;;4.05;67.48
55801;BME280;41730;51.960;20.158;2023-05-08T01:51:11;101562.38;;;4.09;67.24
55801;BME280;41730;51.960;20.158;2023-05-08T01:53:46;101564.57;;;4.05;67.26
55801;BME280;41730;51.960;20.158;2023-05-08T01:56:22;101564.20;;;3.96;67.58
55801;BME280;41730;51.960;20.158;2023-05-08T01:58:57;101564.28;;;4.04;67.35
55801;BME280;41730;51.960;20.158;2023-05-08T02:01:31;101567.16;;;4.06;67.38
55801;BME280;41730;51.960;20.158;2023-05-08T02:04:04;101570.08;;;4.02;67.34
55801;BME280;41730;51.960;20.158;2023-05-08T02:06:37;101568.23;;;4.05;67.34
55801;BME280;41730;51.960;20.158;2023-05-08T02:09:10;101568.08;;;3.99;67.34
55801;BME280;41730;51.960;20.158;2023-05-08T02:11:43;101567.39;;;3.83;67.71
55801;BME280;41730;51.960;20.158;2023-05-08T02:14:16;101562.87;;;3.68;68.03
55801;BME280;41730;51.960;20.158;2023-05-08T02:16:51;101568.88;;;3.70;68.07
55801;BME280;41730;51.960;20.158;2023-05-08T02:19:27;101569.04;;;3.65;68.12
55801;BME280;41730;51.960;20.158;2023-05-08T02:22:01;101574.48;;;3.52;68.29
55801;BME280;41730;51.960;20.158;2023-05-08T02:24:34;101573.97;;;3.46;68.61
55801;BME280;41730;51.960;20.158;2023-05-08T02:27:06;101574.01;;;3.45;68.59
55801;BME280;41730;51.960;20.158;2023-05-08T02:29:40;101574.20;;;3.50;68.52
55801;BME280;41730;51.960;20.158;2023-05-08T02:32:12;101574.30;;;3.57;68.37
55801;BME280;41730;51.960;20.158;2023-05-08T02:34:47;101577.89;;;3.65;67.98
55801;BME280;41730;51.960;20.158;2023-05-08T02:37:32;101575.00;;;3.57;68.27
55801;BME280;41730;51.960;20.158;2023-05-08T02:40:07;101574.96;;;3.47;68.56
55801;BME280;41730;51.960;20.158;2023-05-08T02:42:41;101569.73;;;3.48;68.40
55801;BME280;41730;51.960;20.158;2023-05-08T02:45:14;101575.46;;;3.53;68.39
55801;BME280;41730;51.960;20.158;2023-05-08T02:47:50;101577.02;;;3.48;68.48
55801;BME280;41730;51.960;20.158;2023-05-08T02:50:28;101579.90;;;3.61;68.18
55801;BME280;41730;51.960;20.158;2023-05-08T02:53:08;101587.61;;;3.70;67.79
55801;BME280;41730;51.960;20.158;2023-05-08T02:55:45;101580.82;;;3.54;68.35
55801;BME280;41730;51.960;20.158;2023-05-08T02:58:21;101585.75;;;3.68;68.02
55801;BME280;41730;51.960;20.158;2023-05-08T03:00:59;101581.73;;;3.69;68.03
55801;BME280;41730;51.960;20.158;2023-05-08T03:03:38;101588.20;;;3.78;67.80
55801;BME280;41730;51.960;20.158;2023-05-08T03:06:15;101589.27;;;3.78;67.60
55801;BME280;41730;51.960;20.158;2023-05-08T03:08:49;101590.59;;;3.69;67.86
55801;BME280;41730;51.960;20.158;2023-05-08T03:11:25;101593.33;;;3.64;68.21
55801;BME280;41730;51.960;20.158;2023-05-08T03:14:03;101593.91;;;3.79;68.07
55801;BME280;41730;51.960;20.158;2023-05-08T03:16:38;101594.95;;;3.95;67.62
55801;BME280;41730;51.960;20.158;2023-05-08T03:19:18;101598.45;;;3.99;67.75
55801;BME280;41730;51.960;20.158;2023-05-08T03:21:52;101596.73;;;3.94;68.19
55801;BME280;41730;51.960;20.158;2023-05-08T03:24:27;101598.94;;;4.00;68.32
55801;BME280;41730;51.960;20.158;2023-05-08T03:27:01;101597.77;;;4.10;68.36
55801;BME280;41730;51.960;20.158;2023-05-08T03:29:33;101599.65;;;4.15;68.52
55801;BME280;41730;51.960;20.158;2023-05-08T03:32:07;101600.04;;;4.19;68.79
55801;BME280;41730;51.960;20.158;2023-05-08T03:34:40;101598.46;;;4.35;69.30
55801;BME280;41730;51.960;20.158;2023-05-08T03:37:12;101599.86;;;4.69;70.28
55801;BME280;41730;51.960;20.158;2023-05-08T03:39:43;101593.14;;;5.33;70.78
55801;BME280;41730;51.960;20.158;2023-05-08T03:42:15;101595.11;;;6.10;70.22
55801;BME280;41730;51.960;20.158;2023-05-08T03:44:51;101595.65;;;6.90;69.33
55801;BME280;41730;51.960;20.158;2023-05-08T03:47:26;101593.39;;;7.57;68.61
55801;BME280;41730;51.960;20.158;2023-05-08T03:50:04;101589.56;;;8.25;67.63
55801;BME280;41730;51.960;20.158;2023-05-08T03:52:40;101590.58;;;8.63;66.36
55801;BME280;41730;51.960;20.158;2023-05-08T03:55:16;101592.39;;;8.98;65.81
55801;BME280;41730;51.960;20.158;2023-05-08T03:57:58;101594.11;;;9.37;65.28
55801;BME280;41730;51.960;20.158;2023-05-08T04:00:46;101597.58;;;9.69;65.34
55801;BME280;41730;51.960;20.158;2023-05-08T04:03:26;101600.05;;;9.99;65.18
55801;BME280;41730;51.960;20.158;2023-05-08T04:06:02;101603.96;;;10.37;64.92
55801;BME280;41730;51.960;20.158;2023-05-08T04:08:43;101608.66;;;10.76;64.52
55801;BME280;41730;51.960;20.158;2023-05-08T04:11:22;101608.42;;;11.05;64.07
55801;BME280;41730;51.960;20.158;2023-05-08T04:14:02;101607.89;;;11.28;63.73
55801;BME280;41730;51.960;20.158;2023-05-08T04:16:38;101609.51;;;11.44;63.33
55801;BME280;41730;51.960;20.158;2023-05-08T04:19:14;101608.50;;;11.67;63.25
55801;BME280;41730;51.960;20.158;2023-05-08T04:21:49;101613.95;;;11.97;62.29
55801;BME280;41730;51.960;20.158;2023-05-08T04:24:21;101613.14;;;12.20;61.67
55801;BME280;41730;51.960;20.158;2023-05-08T04:26:54;101617.05;;;12.41;61.39
55801;BME280;41730;51.960;20.158;2023-05-08T04:29:26;101613.85;;;12.67;61.05
55801;BME280;41730;51.960;20.158;2023-05-08T04:31:59;101617.92;;;12.79;60.62
55801;BME280;41730;51.960;20.158;2023-05-08T04:34:31;101620.73;;;12.94;60.25
55801;BME280;41730;51.960;20.158;2023-05-08T04:37:07;101627.64;;;13.11;59.92
55801;BME280;41730;51.960;20.158;2023-05-08T04:39:39;101626.20;;;13.26;60.04
55801;BME280;41730;51.960;20.158;2023-05-08T04:42:12;101632.60;;;13.51;59.30
55801;BME280;41730;51.960;20.158;2023-05-08T04:44:44;101636.10;;;13.75;58.70
55801;BME280;41730;51.960;20.158;2023-05-08T04:47:16;101635.72;;;13.73;58.20
55801;BME280;41730;51.960;20.158;2023-05-08T04:49:48;101639.08;;;13.85;57.60
55801;BME280;41730;51.960;20.158;2023-05-08T04:52:19;101640.69;;;13.97;57.41
55801;BME280;41730;51.960;20.158;2023-05-08T04:54:51;101645.58;;;14.07;56.63
55801;BME280;41730;51.960;20.158;2023-05-08T04:57:23;101647.15;;;14.12;56.66
55801;BME280;41730;51.960;20.158;2023-05-08T04:59:54;101651.60;;;14.20;56.20
55801;BME280;41730;51.960;20.158;2023-05-08T05:02:27;101656.96;;;14.36;56.02
55801;BME280;41730;51.960;20.158;2023-05-08T05:04:59;101658.31;;;14.46;56.07
55801;BME280;41730;51.960;20.158;2023-05-08T05:07:32;101664.20;;;14.60;55.12
55801;BME280;41730;51.960;20.158;2023-05-08T05:10:04;101666.92;;;14.61;55.19
55801;BME280;41730;51.960;20.158;2023-05-08T05:12:36;101669.29;;;14.58;54.88
55801;BME280;41730;51.960;20.158;2023-05-08T05:15:10;101671.31;;;14.54;53.83
55801;BME280;41730;51.960;20.158;2023-05-08T05:17:42;101670.39;;;14.47;53.48
55801;BME280;41730;51.960;20.158;2023-05-08T05:20:14;101668.73;;;14.41;53.69
55801;BME280;41730;51.960;20.158;2023-05-08T05:22:46;101668.53;;;14.56;53.56
55801;BME280;41730;51.960;20.158;2023-05-08T05:25:18;101669.06;;;14.65;53.23
55801;BME280;41730;51.960;20.158;2023-05-08T05:27:50;101676.48;;;14.68;53.33
55801;BME280;41730;51.960;20.158;2023-05-08T05:30:22;101676.57;;;14.85;53.07
55801;BME280;41730;51.960;20.158;2023-05-08T05:32:54;101674.64;;;15.00;52.16
55801;BME280;41730;51.960;20.158;2023-05-08T05:35:26;101676.20;;;14.92;52.15
55801;BME280;41730;51.960;20.158;2023-05-08T05:37:58;101677.66;;;14.73;51.93
55801;BME280;41730;51.960;20.158;2023-05-08T05:40:29;101682.50;;;14.81;52.16
55801;BME280;41730;51.960;20.158;2023-05-08T05:43:01;101683.02;;;14.95;51.66
55801;BME280;41730;51.960;20.158;2023-05-08T05:45:33;101685.46;;;14.88;51.24
55801;BME280;41730;51.960;20.158;2023-05-08T05:48:06;101685.66;;;14.75;51.40
55801;BME280;41730;51.960;20.158;2023-05-08T05:50:37;101684.77;;;14.72;51.71
55801;BME280;41730;51.960;20.158;2023-05-08T05:53:09;101688.72;;;14.99;51.40
55801;BME280;41730;51.960;20.158;2023-05-08T05:55:40;101690.52;;;15.12;50.53
55801;BME280;41730;51.960;20.158;2023-05-08T05:58:12;101687.65;;;15.08;49.87
55801;BME280;41730;51.960;20.158;2023-05-08T06:00:44;101685.63;;;14.98;49.27
55801;BME280;41730;51.960;20.158;2023-05-08T06:03:16;101682.80;;;14.98;48.42
55801;BME280;41730;51.960;20.158;2023-05-08T06:05:48;101680.98;;;14.83;48.56
55801;BME280;41730;51.960;20.158;2023-05-08T06:08:21;101682.06;;;14.57;48.58
55801;BME280;41730;51.960;20.158;2023-05-08T06:10:53;101680.66;;;14.38;49.14
55801;BME280;41730;51.960;20.158;2023-05-08T06:13:25;101682.73;;;14.48;48.90
55801;BME280;41730;51.960;20.158;2023-05-08T06:15:57;101680.08;;;14.43;48.08
55801;BME280;41730;51.960;20.158;2023-05-08T06:18:28;101681.37;;;14.33;48.10
55801;BME280;41730;51.960;20.158;2023-05-08T06:21:00;101684.44;;;14.32;47.96
55801;BME280;41730;51.960;20.158;2023-05-08T06:23:35;101681.36;;;14.45;47.39
55801;BME280;41730;51.960;20.158;2023-05-08T06:26:04;101682.23;;;14.47;47.23
55801;BME280;41730;51.960;20.158;2023-05-08T06:28:36;101682.55;;;14.45;47.64
55801;BME280;41730;51.960;20.158;2023-05-08T06:31:08;101681.69;;;14.38;46.98
55801;BME280;41730;51.960;20.158;2023-05-08T06:33:41;101678.39;;;14.21;46.35
55801;BME280;41730;51.960;20.158;2023-05-08T06:36:13;101680.90;;;13.79;46.85
55801;BME280;41730;51.960;20.158;2023-05-08T06:38:45;101678.80;;;13.40;47.65
55801;BME280;41730;51.960;20.158;2023-05-08T06:41:17;101678.80;;;13.22;48.68
55801;BME280;41730;51.960;20.158;2023-05-08T06:43:48;101679.54;;;13.29;49.12
55801;BME280;41730;51.960;20.158;2023-05-08T06:46:20;101678.17;;;13.44;48.62
55801;BME280;41730;51.960;20.158;2023-05-08T06:48:52;101680.05;;;13.62;48.28
55801;BME280;41730;51.960;20.158;2023-05-08T06:51:26;101676.84;;;13.75;48.13
55801;BME280;41730;51.960;20.158;2023-05-08T06:53:58;101676.94;;;13.90;48.47
55801;BME280;41730;51.960;20.158;2023-05-08T06:56:30;101677.13;;;14.17;47.93
55801;BME280;41730;51.960;20.158;2023-05-08T06:59:01;101678.66;;;14.41;47.45
55801;BME280;41730;51.960;20.158;2023-05-08T07:01:37;101681.36;;;14.54;47.22
55801;BME280;41730;51.960;20.158;2023-05-08T07:04:09;101683.62;;;14.50;47.81
55801;BME280;41730;51.960;20.158;2023-05-08T07:06:41;101685.20;;;14.73;48.04
55801;BME280;41730;51.960;20.158;2023-05-08T07:09:13;101694.25;;;15.05;47.72
55801;BME280;41730;51.960;20.158;2023-05-08T07:11:46;101690.17;;;15.05;46.95
55801;BME280;41730;51.960;20.158;2023-05-08T07:14:18;101694.19;;;14.97;47.14
55801;BME280;41730;51.960;20.158;2023-05-08T07:16:51;101694.98;;;15.04;47.19
55801;BME280;41730;51.960;20.158;2023-05-08T07:19:25;101700.36;;;15.28;46.72
55801;BME280;41730;51.960;20.158;2023-05-08T07:21:57;101694.86;;;15.33;46.65
55801;BME280;41730;51.960;20.158;2023-05-08T07:24:31;101695.50;;;15.34;46.65
55801;BME280;41730;51.960;20.158;2023-05-08T07:27:03;101692.06;;;15.44;47.05
55801;BME280;41730;51.960;20.158;2023-05-08T07:29:35;101693.19;;;15.70;46.64
55801;BME280;41730;51.960;20.158;2023-05-08T07:32:09;101688.04;;;15.96;45.77
55801;BME280;41730;51.960;20.158;2023-05-08T07:34:40;101692.27;;;15.83;44.85
55801;BME280;41730;51.960;20.158;2023-05-08T07:37:12;101688.20;;;15.66;45.43
55801;BME280;41730;51.960;20.158;2023-05-08T07:39:44;101688.41;;;15.70;45.64
55801;BME280;41730;51.960;20.158;2023-05-08T07:42:16;101686.75;;;15.73;45.64
55801;BME280;41730;51.960;20.158;2023-05-08T07:44:48;101692.05;;;15.80;45.29
55801;BME280;41730;51.960;20.158;2023-05-08T07:47:24;101692.00;;;15.98;44.34
55801;BME280;41730;51.960;20.158;2023-05-08T07:49:58;101686.56;;;16.06;43.59
55801;BME280;41730;51.960;20.158;2023-05-08T07:52:29;101691.30;;;15.95;44.00
55801;BME280;41730;51.960;20.158;2023-05-08T07:55:01;101687.89;;;16.11;43.66
55801;BME280;41730;51.960;20.158;2023-05-08T07:57:38;101680.69;;;16.10;43.45
55801;BME280;41730;51.960;20.158;2023-05-08T08:00:13;101679.51;;;16.18;43.28
55801;BME280;41730;51.960;20.158;2023-05-08T08:02:45;101679.73;;;16.22;42.79
55801;BME280;41730;51.960;20.158;2023-05-08T08:05:18;101675.50;;;16.28;43.42
55801;BME280;41730;51.960;20.158;2023-05-08T08:07:49;101686.85;;;16.45;42.27
55801;BME280;41730;51.960;20.158;2023-05-08T08:10:21;101687.23;;;16.40;40.99
55801;BME280;41730;51.960;20.158;2023-05-08T08:12:53;101683.30;;;16.26;41.11
55801;BME280;41730;51.960;20.158;2023-05-08T08:15:25;101686.73;;;16.25;41.54
55801;BME280;41730;51.960;20.158;2023-05-08T08:17:57;101683.20;;;16.19;41.90
55801;BME280;41730;51.960;20.158;2023-05-08T08:20:30;101682.62;;;16.25;41.16
55801;BME280;41730;51.960;20.158;2023-05-08T08:23:02;101675.41;;;16.19;41.78
55801;BME280;41730;51.960;20.158;2023-05-08T08:25:35;101678.46;;;16.12;41.19
55801;BME280;41730;51.960;20.158;2023-05-08T08:28:07;101674.81;;;16.09;41.44
55801;BME280;41730;51.960;20.158;2023-05-08T08:30:39;101674.05;;;16.05;41.40
55801;BME280;41730;51.960;20.158;2023-05-08T08:33:11;101673.20;;;15.98;41.87
55801;BME280;41730;51.960;20.158;2023-05-08T08:35:44;101676.95;;;15.71;41.25
55801;BME280;41730;51.960;20.158;2023-05-08T08:38:16;101673.58;;;15.50;41.46
55801;BME280;41730;51.960;20.158;2023-05-08T08:40:49;101669.45;;;15.39;42.02
55801;BME280;41730;51.960;20.158;2023-05-08T08:43:22;101668.05;;;15.41;42.01
55801;BME280;41730;51.960;20.158;2023-05-08T08:45:54;101669.54;;;15.36;41.28
55801;BME280;41730;51.960;20.158;2023-05-08T08:48:28;101666.64;;;15.17;41.73
55801;BME280;41730;51.960;20.158;2023-05-08T08:51:04;101665.89;;;15.13;41.99
55801;BME280;41730;51.960;20.158;2023-05-08T08:53:43;101661.73;;;15.39;41.65
55801;BME280;41730;51.960;20.158;2023-05-08T08:56:18;101661.69;;;15.59;41.37
55801;BME280;41730;51.960;20.158;2023-05-08T08:58:55;101667.15;;;15.57;41.24
55801;BME280;41730;51.960;20.158;2023-05-08T09:01:29;101666.67;;;15.47;41.22
55801;BME280;41730;51.960;20.158;2023-05-08T09:04:01;101669.14;;;15.41;41.49
55801;BME280;41730;51.960;20.158;2023-05-08T09:06:37;101663.74;;;15.51;41.80
55801;BME280;41730;51.960;20.158;2023-05-08T09:09:12;101661.36;;;15.70;41.49
55801;BME280;41730;51.960;20.158;2023-05-08T09:11:44;101661.52;;;15.68;41.32
55801;BME280;41730;51.960;20.158;2023-05-08T09:14:16;101665.59;;;15.70;40.55
55801;BME280;41730;51.960;20.158;2023-05-08T09:16:48;101667.30;;;15.46;41.16
55801;BME280;41730;51.960;20.158;2023-05-08T09:19:20;101662.27;;;15.32;41.90
55801;BME280;41730;51.960;20.158;2023-05-08T09:21:59;101663.60;;;15.55;41.51
55801;BME280;41730;51.960;20.158;2023-05-08T09:27:21;101654.96;;;15.68;41.17
55801;BME280;41730;51.960;20.158;2023-05-08T09:30:04;101657.70;;;15.62;40.66
55801;BME280;41730;51.960;20.158;2023-05-08T09:32:38;101663.27;;;15.66;40.92
55801;BME280;41730;51.960;20.158;2023-05-08T09:35:12;101661.05;;;15.74;40.58
55801;BME280;41730;51.960;20.158;2023-05-08T09:37:45;101657.95;;;15.88;40.03
55801;BME280;41730;51.960;20.158;2023-05-08T09:40:18;101666.27;;;15.75;40.06
55801;BME280;41730;51.960;20.158;2023-05-08T09:42:51;101665.53;;;15.42;39.29
55801;BME280;41730;51.960;20.158;2023-05-08T09:45:28;101660.20;;;15.29;39.22
55801;BME280;41730;51.960;20.158;2023-05-08T09:48:01;101661.59;;;15.19;39.30
55801;BME280;41730;51.960;20.158;2023-05-08T09:50:33;101662.95;;;15.10;39.60
55801;BME280;41730;51.960;20.158;2023-05-08T09:53:05;101661.23;;;15.20;39.34
55801;BME280;41730;51.960;20.158;2023-05-08T09:55:48;101661.99;;;15.17;39.04
55801;BME280;41730;51.960;20.158;2023-05-08T09:58:21;101658.20;;;15.16;39.92
55801;BME280;41730;51.960;20.158;2023-05-08T10:00:54;101653.27;;;15.36;40.29
55801;BME280;41730;51.960;20.158;2023-05-08T10:03:46;101646.98;;;15.48;39.90
55801;BME280;41730;51.960;20.158;2023-05-08T10:06:19;101645.41;;;15.64;39.47
55801;BME280;41730;51.960;20.158;2023-05-08T10:09:07;101638.39;;;15.72;39.30
55801;BME280;41730;51.960;20.158;2023-05-08T10:11:40;101631.77;;;15.90;37.88
55801;BME280;41730;51.960;20.158;2023-05-08T10:14:13;101628.88;;;16.08;37.00
55801;BME280;41730;51.960;20.158;2023-05-08T10:16:46;101627.27;;;16.04;36.61
55801;BME280;41730;51.960;20.158;2023-05-08T10:19:19;101622.69;;;15.86;37.05
55801;BME280;41730;51.960;20.158;2023-05-08T10:21:53;101622.02;;;15.69;37.22
55801;BME280;41730;51.960;20.158;2023-05-08T10:24:30;101626.46;;;15.55;37.57
55801;BME280;41730;51.960;20.158;2023-05-08T10:27:08;101627.60;;;15.47;37.96
55801;BME280;41730;51.960;20.158;2023-05-08T10:29:44;101629.35;;;15.46;37.66
55801;BME280;41730;51.960;20.158;2023-05-08T10:32:20;101629.16;;;15.44;37.12
55801;BME280;41730;51.960;20.158;2023-05-08T10:34:55;101619.98;;;15.59;37.02
55801;BME280;41730;51.960;20.158;2023-05-08T10:37:29;101623.71;;;15.72;37.40
55801;BME280;41730;51.960;20.158;2023-05-08T10:40:02;101626.63;;;15.67;37.56
55801;BME280;41730;51.960;20.158;2023-05-08T10:42:35;101629.92;;;15.56;37.86
55801;BME280;41730;51.960;20.158;2023-05-08T10:45:09;101622.55;;;15.69;38.26
55801;BME280;41730;51.960;20.158;2023-05-08T10:47:47;101615.30;;;15.76;38.24
55801;BME280;41730;51.960;20.158;2023-05-08T10:50:33;101618.97;;;15.84;38.69
55801;BME280;41730;51.960;20.158;2023-05-08T10:53:12;101615.51;;;15.73;38.92
55801;BME280;41730;51.960;20.158;2023-05-08T10:55:49;101618.55;;;15.70;37.86
55801;BME280;41730;51.960;20.158;2023-05-08T10:58:32;101620.55;;;15.54;37.79
55801;BME280;41730;51.960;20.158;2023-05-08T11:01:15;101606.34;;;15.77;37.96
55801;BME280;41730;51.960;20.158;2023-05-08T11:03:48;101612.38;;;16.17;37.52
55801;BME280;41730;51.960;20.158;2023-05-08T11:06:44;101610.55;;;16.24;37.49
55801;BME280;41730;51.960;20.158;2023-05-08T11:09:20;101613.63;;;16.34;37.14
55801;BME280;41730;51.960;20.158;2023-05-08T11:12:07;101611.55;;;16.33;37.23
55801;BME280;41730;51.960;20.158;2023-05-08T11:14:41;101605.54;;;16.27;37.22
55801;BME280;41730;51.960;20.158;2023-05-08T11:17:24;101609.52;;;16.32;37.34
55801;BME280;41730;51.960;20.158;2023-05-08T11:20:00;101606.60;;;16.52;36.48
55801;BME280;41730;51.960;20.158;2023-05-08T11:22:33;101606.92;;;16.54;36.61
55801;BME280;41730;51.960;20.158;2023-05-08T11:25:08;101603.30;;;16.57;36.71
55801;BME280;41730;51.960;20.158;2023-05-08T11:28:12;101602.27;;;16.57;36.66
55801;BME280;41730;51.960;20.158;2023-05-08T11:30:51;101597.93;;;16.62;36.21
55801;BME280;41730;51.960;20.158;2023-05-08T11:33:27;101593.11;;;16.66;36.47
55801;BME280;41730;51.960;20.158;2023-05-08T11:36:12;101589.85;;;16.67;36.30
55801;BME280;41730;51.960;20.158;2023-05-08T11:38:50;101587.04;;;16.53;36.39
55801;BME280;41730;51.960;20.158;2023-05-08T11:41:36;101583.16;;;16.48;36.61
55801;BME280;41730;51.960;20.158;2023-05-08T11:44:19;101580.92;;;16.52;36.00
55801;BME280;41730;51.960;20.158;2023-05-08T11:46:53;101583.30;;;16.53;35.98
55801;BME280;41730;51.960;20.158;2023-05-08T11:49:25;101580.21;;;16.41;35.84
55801;BME280;41730;51.960;20.158;2023-05-08T11:52:00;101579.73;;;16.20;36.40
55801;BME280;41730;51.960;20.158;2023-05-08T11:54:35;101574.19;;;16.27;36.43
55801;BME280;41730;51.960;20.158;2023-05-08T11:57:06;101576.91;;;16.24;36.50
55801;BME280;41730;51.960;20.158;2023-05-08T11:59:41;101574.98;;;16.39;36.67
55801;BME280;41730;51.960;20.158;2023-05-08T12:02:14;101569.68;;;16.36;36.78
55801;BME280;41730;51.960;20.158;2023-05-08T12:04:46;101570.40;;;16.32;36.98
55801;BME280;41730;51.960;20.158;2023-05-08T12:07:18;101570.31;;;16.23;37.10
55801;BME280;41730;51.960;20.158;2023-05-08T12:09:50;101570.81;;;16.29;36.34
55801;BME280;41730;51.960;20.158;2023-05-08T12:12:22;101565.85;;;16.09;36.61
55801;BME280;41730;51.960;20.158;2023-05-08T12:14:54;101567.98;;;15.85;37.49
55801;BME280;41730;51.960;20.158;2023-05-08T12:17:27;101564.41;;;16.03;37.25
55801;BME280;41730;51.960;20.158;2023-05-08T12:20:10;101565.73;;;16.12;36.20
55801;BME280;41730;51.960;20.158;2023-05-08T12:22:50;101556.50;;;16.23;36.46
55801;BME280;41730;51.960;20.158;2023-05-08T12:25:22;101551.10;;;16.36;36.58
55801;BME280;41730;51.960;20.158;2023-05-08T12:27:55;101540.56;;;16.54;36.39
55801;BME280;41730;51.960;20.158;2023-05-08T12:30:27;101547.85;;;16.58;36.37
55801;BME280;41730;51.960;20.158;2023-05-08T12:32:59;101542.09;;;16.77;36.02
55801;BME280;41730;51.960;20.158;2023-05-08T12:35:32;101543.40;;;16.64;35.87
55801;BME280;41730;51.960;20.158;2023-05-08T12:38:06;101541.56;;;16.67;35.85
55801;BME280;41730;51.960;20.158;2023-05-08T12:40:42;101533.70;;;16.82;35.12
55801;BME280;41730;51.960;20.158;2023-05-08T12:43:15;101537.38;;;16.87;35.30
55801;BME280;41730;51.960;20.158;2023-05-08T12:45:49;101532.39;;;17.03;34.51
55801;BME280;41730;51.960;20.158;2023-05-08T12:48:21;101532.83;;;17.10;34.55
55801;BME280;41730;51.960;20.158;2023-05-08T12:50:53;101533.36;;;16.90;34.40
55801;BME280;41730;51.960;20.158;2023-05-08T12:53:28;101535.41;;;16.78;34.47
55801;BME280;41730;51.960;20.158;2023-05-08T12:56:02;101535.03;;;16.68;34.71
55801;BME280;41730;51.960;20.158;2023-05-08T12:58:35;101535.07;;;16.62;35.49
55801;BME280;41730;51.960;20.158;2023-05-08T13:01:10;101535.74;;;16.44;35.57
55801;BME280;41730;51.960;20.158;2023-05-08T13:03:43;101532.55;;;16.27;35.86
55801;BME280;41730;51.960;20.158;2023-05-08T13:06:28;101532.64;;;16.04;36.25
55801;BME280;41730;51.960;20.158;2023-05-08T13:09:00;101534.64;;;15.82;36.89
55801;BME280;41730;51.960;20.158;2023-05-08T13:11:32;101524.54;;;16.07;36.50
55801;BME280;41730;51.960;20.158;2023-05-08T13:14:04;101525.81;;;16.11;36.43
55801;BME280;41730;51.960;20.158;2023-05-08T13:16:45;101517.28;;;16.20;36.21
55801;BME280;41730;51.960;20.158;2023-05-08T13:19:19;101515.08;;;16.25;36.21
55801;BME280;41730;51.960;20.158;2023-05-08T13:21:51;101508.63;;;16.14;36.09
55801;BME280;41730;51.960;20.158;2023-05-08T13:24:23;101520.48;;;16.10;36.15
55801;BME280;41730;51.960;20.158;2023-05-08T13:26:56;101519.81;;;16.19;36.00